sensor_id;sensor_type;location;lat;lon;timestamp;temperature;humidity
16901;DHT22;8567;52.540;6.434;2022-07-29T00:00:11;23.70;44.10
16901;DHT22;8567;52.540;6.434;2022-07-29T00:02:38;23.70;44.20
16901;DHT22;8567;52.540;6.434;2022-07-29T00:05:05;23.60;44.10
16901;DHT22;8567;52.540;6.434;2022-07-29T00:07:34;23.60;44.20
16901;DHT22;8567;52.540;6.434;2022-07-29T00:10:01;23.60;44.20
16901;DHT22;8567;52.540;6.434;2022-07-29T00:12:27;23.60;44.20
16901;DHT22;8567;52.540;6.434;2022-07-29T00:14:55;23.60;44.20
16901;DHT22;8567;52.540;6.434;2022-07-29T00:17:24;23.60;44.20
16901;DHT22;8567;52.540;6.434;2022-07-29T00:19:50;23.60;44.20
16901;DHT22;8567;52.540;6.434;2022-07-29T00:22:18;23.60;44.30
16901;DHT22;8567;52.540;6.434;2022-07-29T00:24:45;23.60;44.30
16901;DHT22;8567;52.540;6.434;2022-07-29T00:27:13;23.60;44.30
16901;DHT22;8567;52.540;6.434;2022-07-29T00:29:39;23.60;44.30
16901;DHT22;8567;52.540;6.434;2022-07-29T00:32:06;23.50;44.30
16901;DHT22;8567;52.540;6.434;2022-07-29T00:34:35;23.60;44.30
16901;DHT22;8567;52.540;6.434;2022-07-29T00:37:19;23.60;44.30
16901;DHT22;8567;52.540;6.434;2022-07-29T00:39:46;23.60;44.30
16901;DHT22;8567;52.540;6.434;2022-07-29T00:42:13;23.60;44.30
16901;DHT22;8567;52.540;6.434;2022-07-29T00:44:41;23.50;44.30
16901;DHT22;8567;52.540;6.434;2022-07-29T00:47:09;23.60;44.30
16901;DHT22;8567;52.540;6.434;2022-07-29T00:49:39;23.60;44.30
16901;DHT22;8567;52.540;6.434;2022-07-29T00:52:06;23.50;44.30
16901;DHT22;8567;52.540;6.434;2022-07-29T00:54:34;23.60;44.30
16901;DHT22;8567;52.540;6.434;2022-07-29T00:57:01;23.50;44.30
16901;DHT22;8567;52.540;6.434;2022-07-29T00:59:28;23.50;44.40
16901;DHT22;8567;52.540;6.434;2022-07-29T01:01:56;23.50;44.40
16901;DHT22;8567;52.540;6.434;2022-07-29T01:04:23;23.50;44.40
16901;DHT22;8567;52.540;6.434;2022-07-29T01:06:51;23.50;44.40
16901;DHT22;8567;52.540;6.434;2022-07-29T01:09:20;23.50;44.40
16901;DHT22;8567;52.540;6.434;2022-07-29T01:11:47;23.50;44.40
16901;DHT22;8567;52.540;6.434;2022-07-29T01:14:15;23.50;44.40
16901;DHT22;8567;52.540;6.434;2022-07-29T01:16:47;23.50;44.40
16901;DHT22;8567;52.540;6.434;2022-07-29T01:19:30;23.50;44.30
16901;DHT22;8567;52.540;6.434;2022-07-29T01:22:13;23.50;44.40
16901;DHT22;8567;52.540;6.434;2022-07-29T01:25:02;23.50;44.30
16901;DHT22;8567;52.540;6.434;2022-07-29T01:27:38;23.50;44.30
16901;DHT22;8567;52.540;6.434;2022-07-29T01:30:09;23.50;44.40
16901;DHT22;8567;52.540;6.434;2022-07-29T01:32:37;23.50;44.40
16901;DHT22;8567;52.540;6.434;2022-07-29T01:35:09;23.50;44.40
16901;DHT22;8567;52.540;6.434;2022-07-29T01:37:42;23.50;44.30
16901;DHT22;8567;52.540;6.434;2022-07-29T01:40:14;23.50;44.30
16901;DHT22;8567;52.540;6.434;2022-07-29T01:42:49;23.50;44.20
16901;DHT22;8567;52.540;6.434;2022-07-29T01:45:21;23.50;44.30
16901;DHT22;8567;52.540;6.434;2022-07-29T01:47:58;23.50;44.20
16901;DHT22;8567;52.540;6.434;2022-07-29T01:50:32;23.50;44.30
16901;DHT22;8567;52.540;6.434;2022-07-29T01:53:02;23.50;44.30
16901;DHT22;8567;52.540;6.434;2022-07-29T01:55:34;23.50;44.30
16901;DHT22;8567;52.540;6.434;2022-07-29T01:58:03;23.50;44.30
16901;DHT22;8567;52.540;6.434;2022-07-29T02:00:33;23.50;44.30
16901;DHT22;8567;52.540;6.434;2022-07-29T02:03:04;23.40;44.30
16901;DHT22;8567;52.540;6.434;2022-07-29T02:05:32;23.40;44.30
16901;DHT22;8567;52.540;6.434;2022-07-29T02:08:01;23.50;44.30
16901;DHT22;8567;52.540;6.434;2022-07-29T02:10:30;23.40;44.30
16901;DHT22;8567;52.540;6.434;2022-07-29T02:12:59;23.40;44.40
16901;DHT22;8567;52.540;6.434;2022-07-29T02:15:29;23.40;44.30
16901;DHT22;8567;52.540;6.434;2022-07-29T02:18:01;23.40;44.30
16901;DHT22;8567;52.540;6.434;2022-07-29T02:20:30;23.40;44.30
16901;DHT22;8567;52.540;6.434;2022-07-29T02:22:57;23.40;44.30
16901;DHT22;8567;52.540;6.434;2022-07-29T02:25:25;23.40;44.30
16901;DHT22;8567;52.540;6.434;2022-07-29T02:27:53;23.40;44.30
16901;DHT22;8567;52.540;6.434;2022-07-29T02:30:22;23.40;44.30
16901;DHT22;8567;52.540;6.434;2022-07-29T02:32:49;23.40;44.40
16901;DHT22;8567;52.540;6.434;2022-07-29T02:35:20;23.40;44.40
16901;DHT22;8567;52.540;6.434;2022-07-29T02:37:47;23.40;44.30
16901;DHT22;8567;52.540;6.434;2022-07-29T02:40:37;23.40;44.20
16901;DHT22;8567;52.540;6.434;2022-07-29T02:43:06;23.40;44.30
16901;DHT22;8567;52.540;6.434;2022-07-29T02:45:34;23.40;44.40
16901;DHT22;8567;52.540;6.434;2022-07-29T02:48:06;23.40;44.30
16901;DHT22;8567;52.540;6.434;2022-07-29T02:50:39;23.40;44.30
16901;DHT22;8567;52.540;6.434;2022-07-29T02:53:13;23.40;44.40
16901;DHT22;8567;52.540;6.434;2022-07-29T02:55:45;23.40;44.30
16901;DHT22;8567;52.540;6.434;2022-07-29T02:58:15;23.40;44.40
16901;DHT22;8567;52.540;6.434;2022-07-29T03:00:49;23.40;44.30
16901;DHT22;8567;52.540;6.434;2022-07-29T03:03:20;23.40;44.30
16901;DHT22;8567;52.540;6.434;2022-07-29T03:05:48;23.40;44.40
16901;DHT22;8567;52.540;6.434;2022-07-29T03:08:16;23.40;44.30
16901;DHT22;8567;52.540;6.434;2022-07-29T03:10:44;23.40;44.30
16901;DHT22;8567;52.540;6.434;2022-07-29T03:13:12;23.40;44.40
16901;DHT22;8567;52.540;6.434;2022-07-29T03:15:39;23.30;44.40
16901;DHT22;8567;52.540;6.434;2022-07-29T03:18:09;23.30;44.40
16901;DHT22;8567;52.540;6.434;2022-07-29T03:20:37;23.40;44.30
16901;DHT22;8567;52.540;6.434;2022-07-29T03:23:05;23.30;44.40
16901;DHT22;8567;52.540;6.434;2022-07-29T03:25:33;23.30;44.40
16901;DHT22;8567;52.540;6.434;2022-07-29T03:27:59;23.30;44.40
16901;DHT22;8567;52.540;6.434;2022-07-29T03:30:27;23.30;44.40
16901;DHT22;8567;52.540;6.434;2022-07-29T03:32:56;23.30;44.30
16901;DHT22;8567;52.540;6.434;2022-07-29T03:35:23;23.30;44.40
16901;DHT22;8567;52.540;6.434;2022-07-29T03:37:50;23.30;44.30
16901;DHT22;8567;52.540;6.434;2022-07-29T03:40:21;23.30;44.40
16901;DHT22;8567;52.540;6.434;2022-07-29T03:42:49;23.30;44.30
16901;DHT22;8567;52.540;6.434;2022-07-29T03:45:18;23.30;44.40
16901;DHT22;8567;52.540;6.434;2022-07-29T03:47:49;23.30;44.40
16901;DHT22;8567;52.540;6.434;2022-07-29T03:50:17;23.30;44.40
16901;DHT22;8567;52.540;6.434;2022-07-29T03:52:46;23.30;44.40
16901;DHT22;8567;52.540;6.434;2022-07-29T03:55:13;23.30;44.40
16901;DHT22;8567;52.540;6.434;2022-07-29T03:57:44;23.30;44.40
16901;DHT22;8567;52.540;6.434;2022-07-29T04:00:12;23.30;44.50
16901;DHT22;8567;52.540;6.434;2022-07-29T04:02:39;23.20;44.40
16901;DHT22;8567;52.540;6.434;2022-07-29T04:05:12;23.20;44.50
16901;DHT22;8567;52.540;6.434;2022-07-29T04:07:40;23.30;44.50
16901;DHT22;8567;52.540;6.434;2022-07-29T04:10:07;23.20;44.50
16901;DHT22;8567;52.540;6.434;2022-07-29T04:12:34;23.30;44.50
16901;DHT22;8567;52.540;6.434;2022-07-29T04:15:03;23.30;44.40
16901;DHT22;8567;52.540;6.434;2022-07-29T04:17:30;23.30;44.40
16901;DHT22;8567;52.540;6.434;2022-07-29T04:19:57;23.30;44.40
16901;DHT22;8567;52.540;6.434;2022-07-29T04:22:23;23.20;44.50
16901;DHT22;8567;52.540;6.434;2022-07-29T04:24:50;23.20;44.50
16901;DHT22;8567;52.540;6.434;2022-07-29T04:27:17;23.20;44.50
16901;DHT22;8567;52.540;6.434;2022-07-29T04:29:44;23.20;44.50
16901;DHT22;8567;52.540;6.434;2022-07-29T04:32:13;23.20;44.50
16901;DHT22;8567;52.540;6.434;2022-07-29T04:34:40;23.20;44.50
16901;DHT22;8567;52.540;6.434;2022-07-29T04:37:07;23.20;44.50
16901;DHT22;8567;52.540;6.434;2022-07-29T04:39:34;23.20;44.50
16901;DHT22;8567;52.540;6.434;2022-07-29T04:42:00;23.20;44.50
16901;DHT22;8567;52.540;6.434;2022-07-29T04:44:27;23.20;44.50
16901;DHT22;8567;52.540;6.434;2022-07-29T04:46:55;23.20;44.50
16901;DHT22;8567;52.540;6.434;2022-07-29T04:49:23;23.20;44.50
16901;DHT22;8567;52.540;6.434;2022-07-29T04:51:49;23.20;44.50
16901;DHT22;8567;52.540;6.434;2022-07-29T04:54:16;23.20;44.50
16901;DHT22;8567;52.540;6.434;2022-07-29T04:56:43;23.20;44.60
16901;DHT22;8567;52.540;6.434;2022-07-29T04:59:12;23.20;44.60
16901;DHT22;8567;52.540;6.434;2022-07-29T05:01:39;23.20;44.50
16901;DHT22;8567;52.540;6.434;2022-07-29T05:04:06;23.20;44.50
16901;DHT22;8567;52.540;6.434;2022-07-29T05:06:34;23.20;44.60
16901;DHT22;8567;52.540;6.434;2022-07-29T05:09:01;23.20;44.50
16901;DHT22;8567;52.540;6.434;2022-07-29T05:11:28;23.20;44.50
16901;DHT22;8567;52.540;6.434;2022-07-29T05:13:54;23.30;44.50
16901;DHT22;8567;52.540;6.434;2022-07-29T05:16:21;23.30;44.50
16901;DHT22;8567;52.540;6.434;2022-07-29T05:18:48;23.20;44.60
16901;DHT22;8567;52.540;6.434;2022-07-29T05:21:14;23.20;44.60
16901;DHT22;8567;52.540;6.434;2022-07-29T05:23:43;23.20;44.60
16901;DHT22;8567;52.540;6.434;2022-07-29T05:26:10;23.20;44.70
16901;DHT22;8567;52.540;6.434;2022-07-29T05:28:37;23.20;44.70
16901;DHT22;8567;52.540;6.434;2022-07-29T05:31:04;23.20;44.70
16901;DHT22;8567;52.540;6.434;2022-07-29T05:33:30;23.30;44.70
16901;DHT22;8567;52.540;6.434;2022-07-29T05:35:58;23.20;44.70
16901;DHT22;8567;52.540;6.434;2022-07-29T05:38:24;23.30;44.60
16901;DHT22;8567;52.540;6.434;2022-07-29T05:40:52;23.30;44.60
16901;DHT22;8567;52.540;6.434;2022-07-29T05:43:19;23.30;44.60
16901;DHT22;8567;52.540;6.434;2022-07-29T05:45:46;23.20;44.70
16901;DHT22;8567;52.540;6.434;2022-07-29T05:48:13;23.20;44.70
16901;DHT22;8567;52.540;6.434;2022-07-29T05:50:40;23.30;44.70
16901;DHT22;8567;52.540;6.434;2022-07-29T05:53:07;23.20;44.80
16901;DHT22;8567;52.540;6.434;2022-07-29T05:55:34;23.20;44.80
16901;DHT22;8567;52.540;6.434;2022-07-29T05:58:02;23.20;44.80
16901;DHT22;8567;52.540;6.434;2022-07-29T06:00:28;23.20;44.90
16901;DHT22;8567;52.540;6.434;2022-07-29T06:02:55;23.20;45.00
16901;DHT22;8567;52.540;6.434;2022-07-29T06:05:22;23.20;44.90
16901;DHT22;8567;52.540;6.434;2022-07-29T06:07:49;23.20;44.90
16901;DHT22;8567;52.540;6.434;2022-07-29T06:10:16;23.20;45.00
16901;DHT22;8567;52.540;6.434;2022-07-29T06:12:44;23.20;45.00
16901;DHT22;8567;52.540;6.434;2022-07-29T06:15:12;23.20;45.00
16901;DHT22;8567;52.540;6.434;2022-07-29T06:17:39;23.20;45.10
16901;DHT22;8567;52.540;6.434;2022-07-29T06:20:06;23.20;45.20
16901;DHT22;8567;52.540;6.434;2022-07-29T06:22:33;23.20;45.10
16901;DHT22;8567;52.540;6.434;2022-07-29T06:25:01;23.20;45.20
16901;DHT22;8567;52.540;6.434;2022-07-29T06:27:27;23.20;45.20
16901;DHT22;8567;52.540;6.434;2022-07-29T06:29:56;23.20;45.00
16901;DHT22;8567;52.540;6.434;2022-07-29T06:32:24;23.20;45.20
16901;DHT22;8567;52.540;6.434;2022-07-29T06:34:51;23.20;45.10
16901;DHT22;8567;52.540;6.434;2022-07-29T06:37:18;23.20;45.20
16901;DHT22;8567;52.540;6.434;2022-07-29T06:39:44;23.20;45.10
16901;DHT22;8567;52.540;6.434;2022-07-29T06:42:11;23.20;45.20
16901;DHT22;8567;52.540;6.434;2022-07-29T06:44:38;23.20;45.20
16901;DHT22;8567;52.540;6.434;2022-07-29T06:47:05;23.20;45.40
16901;DHT22;8567;52.540;6.434;2022-07-29T06:49:33;23.20;45.50
16901;DHT22;8567;52.540;6.434;2022-07-29T06:52:00;23.20;45.50
16901;DHT22;8567;52.540;6.434;2022-07-29T06:54:27;23.10;46.20
16901;DHT22;8567;52.540;6.434;2022-07-29T06:56:54;23.00;46.70
16901;DHT22;8567;52.540;6.434;2022-07-29T06:59:21;22.90;46.80
16901;DHT22;8567;52.540;6.434;2022-07-29T07:01:47;22.90;46.50
16901;DHT22;8567;52.540;6.434;2022-07-29T07:04:15;23.00;46.80
16901;DHT22;8567;52.540;6.434;2022-07-29T07:06:43;23.00;46.50
16901;DHT22;8567;52.540;6.434;2022-07-29T07:09:10;23.10;46.40
16901;DHT22;8567;52.540;6.434;2022-07-29T07:11:36;23.10;46.40
16901;DHT22;8567;52.540;6.434;2022-07-29T07:14:03;23.10;46.50
16901;DHT22;8567;52.540;6.434;2022-07-29T07:16:30;23.10;46.80
16901;DHT22;8567;52.540;6.434;2022-07-29T07:18:57;23.10;46.60
16901;DHT22;8567;52.540;6.434;2022-07-29T07:21:24;23.20;46.50
16901;DHT22;8567;52.540;6.434;2022-07-29T07:23:53;23.20;46.70
16901;DHT22;8567;52.540;6.434;2022-07-29T07:26:19;23.10;46.90
16901;DHT22;8567;52.540;6.434;2022-07-29T07:28:46;23.10;46.90
16901;DHT22;8567;52.540;6.434;2022-07-29T07:31:13;23.10;46.80
16901;DHT22;8567;52.540;6.434;2022-07-29T07:33:40;23.20;46.60
16901;DHT22;8567;52.540;6.434;2022-07-29T07:36:06;23.30;46.80
16901;DHT22;8567;52.540;6.434;2022-07-29T07:38:34;23.30;46.90
16901;DHT22;8567;52.540;6.434;2022-07-29T07:41:02;23.40;46.80
16901;DHT22;8567;52.540;6.434;2022-07-29T07:43:29;23.30;46.70
16901;DHT22;8567;52.540;6.434;2022-07-29T07:45:55;23.30;46.90
16901;DHT22;8567;52.540;6.434;2022-07-29T07:48:22;23.30;46.90
16901;DHT22;8567;52.540;6.434;2022-07-29T07:50:49;23.30;46.90
16901;DHT22;8567;52.540;6.434;2022-07-29T07:53:16;23.40;46.90
16901;DHT22;8567;52.540;6.434;2022-07-29T07:55:44;23.40;46.90
16901;DHT22;8567;52.540;6.434;2022-07-29T07:58:12;23.40;46.80
16901;DHT22;8567;52.540;6.434;2022-07-29T08:00:39;23.50;46.70
16901;DHT22;8567;52.540;6.434;2022-07-29T08:03:05;23.50;46.70
16901;DHT22;8567;52.540;6.434;2022-07-29T08:05:32;23.50;46.60
16901;DHT22;8567;52.540;6.434;2022-07-29T08:07:59;23.50;46.60
16901;DHT22;8567;52.540;6.434;2022-07-29T08:10:26;23.60;46.50
16901;DHT22;8567;52.540;6.434;2022-07-29T08:13:11;23.60;46.60
16901;DHT22;8567;52.540;6.434;2022-07-29T08:15:39;23.50;46.60
16901;DHT22;8567;52.540;6.434;2022-07-29T08:18:06;23.50;46.80
16901;DHT22;8567;52.540;6.434;2022-07-29T08:20:33;23.50;46.80
16901;DHT22;8567;52.540;6.434;2022-07-29T08:23:00;23.50;46.70
16901;DHT22;8567;52.540;6.434;2022-07-29T08:25:28;23.50;46.90
16901;DHT22;8567;52.540;6.434;2022-07-29T08:27:54;23.50;46.80
16901;DHT22;8567;52.540;6.434;2022-07-29T08:30:23;23.50;46.90
16901;DHT22;8567;52.540;6.434;2022-07-29T08:32:50;23.50;46.90
16901;DHT22;8567;52.540;6.434;2022-07-29T08:35:18;23.50;47.00
16901;DHT22;8567;52.540;6.434;2022-07-29T08:37:45;23.50;47.20
16901;DHT22;8567;52.540;6.434;2022-07-29T08:40:12;23.40;47.50
16901;DHT22;8567;52.540;6.434;2022-07-29T08:42:39;23.40;47.70
16901;DHT22;8567;52.540;6.434;2022-07-29T08:45:07;23.40;47.80
16901;DHT22;8567;52.540;6.434;2022-07-29T08:47:36;23.30;48.20
16901;DHT22;8567;52.540;6.434;2022-07-29T08:50:06;23.20;48.50
16901;DHT22;8567;52.540;6.434;2022-07-29T08:52:36;23.20;48.40
16901;DHT22;8567;52.540;6.434;2022-07-29T08:55:04;23.20;48.50
16901;DHT22;8567;52.540;6.434;2022-07-29T08:57:31;23.20;48.70
16901;DHT22;8567;52.540;6.434;2022-07-29T09:00:00;23.20;48.80
16901;DHT22;8567;52.540;6.434;2022-07-29T09:02:29;23.20;48.70
16901;DHT22;8567;52.540;6.434;2022-07-29T09:04:58;23.20;48.70
16901;DHT22;8567;52.540;6.434;2022-07-29T09:07:27;23.30;48.50
16901;DHT22;8567;52.540;6.434;2022-07-29T09:09:54;23.30;48.20
16901;DHT22;8567;52.540;6.434;2022-07-29T09:12:21;23.50;48.00
16901;DHT22;8567;52.540;6.434;2022-07-29T09:14:50;23.70;47.70
16901;DHT22;8567;52.540;6.434;2022-07-29T09:17:17;23.70;48.40
16901;DHT22;8567;52.540;6.434;2022-07-29T09:19:45;23.80;47.90
16901;DHT22;8567;52.540;6.434;2022-07-29T09:22:28;23.80;48.40
16901;DHT22;8567;52.540;6.434;2022-07-29T09:24:56;23.70;48.70
16901;DHT22;8567;52.540;6.434;2022-07-29T09:27:24;23.70;48.40
16901;DHT22;8567;52.540;6.434;2022-07-29T09:30:00;23.80;48.40
16901;DHT22;8567;52.540;6.434;2022-07-29T09:32:27;23.90;48.30
16901;DHT22;8567;52.540;6.434;2022-07-29T09:35:16;24.00;47.80
16901;DHT22;8567;52.540;6.434;2022-07-29T09:37:45;24.10;47.60
16901;DHT22;8567;52.540;6.434;2022-07-29T09:40:14;24.20;47.60
16901;DHT22;8567;52.540;6.434;2022-07-29T09:42:42;24.20;47.80
16901;DHT22;8567;52.540;6.434;2022-07-29T09:45:09;24.20;47.80
16901;DHT22;8567;52.540;6.434;2022-07-29T09:47:41;24.30;47.70
16901;DHT22;8567;52.540;6.434;2022-07-29T09:50:10;24.30;47.60
16901;DHT22;8567;52.540;6.434;2022-07-29T09:52:48;24.40;47.50
16901;DHT22;8567;52.540;6.434;2022-07-29T09:55:16;24.40;48.10
16901;DHT22;8567;52.540;6.434;2022-07-29T09:57:44;24.40;47.30
16901;DHT22;8567;52.540;6.434;2022-07-29T10:00:12;24.30;47.40
16901;DHT22;8567;52.540;6.434;2022-07-29T10:02:42;24.20;47.60
16901;DHT22;8567;52.540;6.434;2022-07-29T10:05:20;24.10;48.10
16901;DHT22;8567;52.540;6.434;2022-07-29T10:07:49;24.10;48.00
16901;DHT22;8567;52.540;6.434;2022-07-29T10:10:21;24.10;48.20
16901;DHT22;8567;52.540;6.434;2022-07-29T10:12:51;24.00;48.20
16901;DHT22;8567;52.540;6.434;2022-07-29T10:15:18;24.00;48.30
16901;DHT22;8567;52.540;6.434;2022-07-29T10:17:47;24.00;48.50
16901;DHT22;8567;52.540;6.434;2022-07-29T10:20:15;24.00;48.50
16901;DHT22;8567;52.540;6.434;2022-07-29T10:22:42;23.90;48.50
16901;DHT22;8567;52.540;6.434;2022-07-29T10:25:14;23.90;48.60
16901;DHT22;8567;52.540;6.434;2022-07-29T10:27:41;24.00;48.50
16901;DHT22;8567;52.540;6.434;2022-07-29T10:30:09;24.10;48.30
16901;DHT22;8567;52.540;6.434;2022-07-29T10:35:40;24.20;48.10
16901;DHT22;8567;52.540;6.434;2022-07-29T10:38:30;24.20;48.20
16901;DHT22;8567;52.540;6.434;2022-07-29T10:43:59;24.20;49.40
16901;DHT22;8567;52.540;6.434;2022-07-29T10:46:28;24.40;48.10
16901;DHT22;8567;52.540;6.434;2022-07-29T10:49:08;24.30;48.40
16901;DHT22;8567;52.540;6.434;2022-07-29T10:51:54;24.30;48.50
16901;DHT22;8567;52.540;6.434;2022-07-29T10:54:45;24.20;48.30
16901;DHT22;8567;52.540;6.434;2022-07-29T10:57:22;24.20;48.30
16901;DHT22;8567;52.540;6.434;2022-07-29T11:02:44;24.30;48.30
16901;DHT22;8567;52.540;6.434;2022-07-29T11:05:13;24.30;48.20
16901;DHT22;8567;52.540;6.434;2022-07-29T11:10:43;24.30;48.50
16901;DHT22;8567;52.540;6.434;2022-07-29T11:13:11;24.20;48.60
16901;DHT22;8567;52.540;6.434;2022-07-29T11:15:52;24.20;48.60
16901;DHT22;8567;52.540;6.434;2022-07-29T11:18:19;24.20;48.70
16901;DHT22;8567;52.540;6.434;2022-07-29T11:20:47;24.20;48.70
16901;DHT22;8567;52.540;6.434;2022-07-29T11:23:25;24.20;48.50
16901;DHT22;8567;52.540;6.434;2022-07-29T11:26:15;24.20;48.50
16901;DHT22;8567;52.540;6.434;2022-07-29T11:28:53;24.30;48.30
16901;DHT22;8567;52.540;6.434;2022-07-29T11:31:33;24.40;48.20
16901;DHT22;8567;52.540;6.434;2022-07-29T11:34:18;24.40;48.10
16901;DHT22;8567;52.540;6.434;2022-07-29T11:37:14;24.40;48.10
16901;DHT22;8567;52.540;6.434;2022-07-29T11:39:42;24.40;48.00
16901;DHT22;8567;52.540;6.434;2022-07-29T11:42:40;24.30;48.10
16901;DHT22;8567;52.540;6.434;2022-07-29T11:45:10;24.40;48.20
16901;DHT22;8567;52.540;6.434;2022-07-29T11:47:40;24.30;48.10
16901;DHT22;8567;52.540;6.434;2022-07-29T11:50:10;24.30;48.20
16901;DHT22;8567;52.540;6.434;2022-07-29T11:52:39;24.30;48.20
16901;DHT22;8567;52.540;6.434;2022-07-29T11:55:12;24.30;48.20
16901;DHT22;8567;52.540;6.434;2022-07-29T11:57:46;24.30;48.30
16901;DHT22;8567;52.540;6.434;2022-07-29T12:00:21;24.30;48.30
16901;DHT22;8567;52.540;6.434;2022-07-29T12:02:49;24.20;48.30
16901;DHT22;8567;52.540;6.434;2022-07-29T12:05:17;24.30;48.30
16901;DHT22;8567;52.540;6.434;2022-07-29T12:07:44;24.30;48.30
16901;DHT22;8567;52.540;6.434;2022-07-29T12:10:10;24.20;48.40
16901;DHT22;8567;52.540;6.434;2022-07-29T12:12:37;24.30;48.40
16901;DHT22;8567;52.540;6.434;2022-07-29T12:15:17;24.30;48.30
16901;DHT22;8567;52.540;6.434;2022-07-29T12:17:46;24.30;48.30
16901;DHT22;8567;52.540;6.434;2022-07-29T12:20:13;24.30;48.30
16901;DHT22;8567;52.540;6.434;2022-07-29T12:22:42;24.30;48.30
16901;DHT22;8567;52.540;6.434;2022-07-29T12:25:11;24.40;48.30
16901;DHT22;8567;52.540;6.434;2022-07-29T12:27:41;24.30;48.30
16901;DHT22;8567;52.540;6.434;2022-07-29T12:30:10;24.30;48.30
16901;DHT22;8567;52.540;6.434;2022-07-29T12:32:40;24.30;48.30
16901;DHT22;8567;52.540;6.434;2022-07-29T12:35:09;24.40;48.30
16901;DHT22;8567;52.540;6.434;2022-07-29T12:37:38;24.40;48.30
16901;DHT22;8567;52.540;6.434;2022-07-29T12:40:08;24.40;48.30
16901;DHT22;8567;52.540;6.434;2022-07-29T12:42:36;24.40;48.30
16901;DHT22;8567;52.540;6.434;2022-07-29T12:45:04;24.40;48.20
16901;DHT22;8567;52.540;6.434;2022-07-29T12:47:31;24.40;48.30
16901;DHT22;8567;52.540;6.434;2022-07-29T12:50:10;24.40;48.30
16901;DHT22;8567;52.540;6.434;2022-07-29T12:52:37;24.50;48.40
16901;DHT22;8567;52.540;6.434;2022-07-29T12:55:04;24.60;48.20
16901;DHT22;8567;52.540;6.434;2022-07-29T12:57:43;24.70;48.10
16901;DHT22;8567;52.540;6.434;2022-07-29T13:00:12;24.80;48.00
16901;DHT22;8567;52.540;6.434;2022-07-29T13:02:40;24.80;48.00
16901;DHT22;8567;52.540;6.434;2022-07-29T13:05:10;24.90;47.90
16901;DHT22;8567;52.540;6.434;2022-07-29T13:07:38;24.80;48.00
16901;DHT22;8567;52.540;6.434;2022-07-29T13:10:14;24.80;48.20
16901;DHT22;8567;52.540;6.434;2022-07-29T13:13:05;24.80;48.20
16901;DHT22;8567;52.540;6.434;2022-07-29T13:15:34;24.80;48.30
16901;DHT22;8567;52.540;6.434;2022-07-29T13:18:01;24.80;48.20
16901;DHT22;8567;52.540;6.434;2022-07-29T13:20:29;24.90;48.30
16901;DHT22;8567;52.540;6.434;2022-07-29T13:22:57;24.90;48.20
16901;DHT22;8567;52.540;6.434;2022-07-29T13:25:25;24.90;48.20
16901;DHT22;8567;52.540;6.434;2022-07-29T13:27:52;24.90;48.20
16901;DHT22;8567;52.540;6.434;2022-07-29T13:30:20;24.90;48.30
16901;DHT22;8567;52.540;6.434;2022-07-29T13:32:48;25.00;48.30
16901;DHT22;8567;52.540;6.434;2022-07-29T13:35:15;25.00;48.20
16901;DHT22;8567;52.540;6.434;2022-07-29T13:37:43;25.00;48.10
16901;DHT22;8567;52.540;6.434;2022-07-29T13:40:11;25.00;48.20
16901;DHT22;8567;52.540;6.434;2022-07-29T13:42:38;25.00;48.20
16901;DHT22;8567;52.540;6.434;2022-07-29T13:45:06;25.00;48.00
16901;DHT22;8567;52.540;6.434;2022-07-29T13:47:33;25.10;48.00
16901;DHT22;8567;52.540;6.434;2022-07-29T13:50:00;25.00;48.00
16901;DHT22;8567;52.540;6.434;2022-07-29T13:52:27;25.00;48.00
16901;DHT22;8567;52.540;6.434;2022-07-29T13:54:55;25.00;48.00
16901;DHT22;8567;52.540;6.434;2022-07-29T13:57:22;25.00;48.00
16901;DHT22;8567;52.540;6.434;2022-07-29T13:59:49;25.00;47.90
16901;DHT22;8567;52.540;6.434;2022-07-29T14:02:16;25.00;47.90
16901;DHT22;8567;52.540;6.434;2022-07-29T14:04:43;25.10;47.90
16901;DHT22;8567;52.540;6.434;2022-07-29T14:07:10;25.10;47.80
16901;DHT22;8567;52.540;6.434;2022-07-29T14:09:37;25.10;47.80
16901;DHT22;8567;52.540;6.434;2022-07-29T14:12:06;25.10;47.70
16901;DHT22;8567;52.540;6.434;2022-07-29T14:14:33;25.10;47.70
16901;DHT22;8567;52.540;6.434;2022-07-29T14:17:02;25.10;47.60
16901;DHT22;8567;52.540;6.434;2022-07-29T14:19:31;25.10;47.60
16901;DHT22;8567;52.540;6.434;2022-07-29T14:22:01;25.10;47.60
16901;DHT22;8567;52.540;6.434;2022-07-29T14:24:28;25.10;47.50
16901;DHT22;8567;52.540;6.434;2022-07-29T14:26:55;25.10;47.70
16901;DHT22;8567;52.540;6.434;2022-07-29T14:29:23;25.10;47.70
16901;DHT22;8567;52.540;6.434;2022-07-29T14:31:49;25.00;47.80
16901;DHT22;8567;52.540;6.434;2022-07-29T14:34:16;25.00;47.60
16901;DHT22;8567;52.540;6.434;2022-07-29T14:36:43;25.00;47.70
16901;DHT22;8567;52.540;6.434;2022-07-29T14:39:10;25.00;47.70
16901;DHT22;8567;52.540;6.434;2022-07-29T14:41:37;25.10;47.60
16901;DHT22;8567;52.540;6.434;2022-07-29T14:44:04;25.10;47.50
16901;DHT22;8567;52.540;6.434;2022-07-29T14:46:33;25.10;47.20
16901;DHT22;8567;52.540;6.434;2022-07-29T14:49:00;25.00;47.20
16901;DHT22;8567;52.540;6.434;2022-07-29T14:51:27;25.10;47.10
16901;DHT22;8567;52.540;6.434;2022-07-29T14:53:54;25.00;47.50
16901;DHT22;8567;52.540;6.434;2022-07-29T14:56:21;25.10;47.40
16901;DHT22;8567;52.540;6.434;2022-07-29T14:58:48;25.00;46.70
16901;DHT22;8567;52.540;6.434;2022-07-29T15:01:15;25.00;46.80
16901;DHT22;8567;52.540;6.434;2022-07-29T15:03:43;25.10;47.10
16901;DHT22;8567;52.540;6.434;2022-07-29T15:06:11;25.10;47.10
16901;DHT22;8567;52.540;6.434;2022-07-29T15:08:37;25.10;46.60
16901;DHT22;8567;52.540;6.434;2022-07-29T15:11:04;25.10;46.40
16901;DHT22;8567;52.540;6.434;2022-07-29T15:13:31;25.20;46.60
16901;DHT22;8567;52.540;6.434;2022-07-29T15:15:59;25.20;46.50
16901;DHT22;8567;52.540;6.434;2022-07-29T15:18:25;25.30;46.80
16901;DHT22;8567;52.540;6.434;2022-07-29T15:20:54;25.30;46.30
16901;DHT22;8567;52.540;6.434;2022-07-29T15:23:20;25.30;46.50
16901;DHT22;8567;52.540;6.434;2022-07-29T15:25:50;25.40;46.40
16901;DHT22;8567;52.540;6.434;2022-07-29T15:28:17;25.40;46.30
16901;DHT22;8567;52.540;6.434;2022-07-29T15:30:44;25.40;46.40
16901;DHT22;8567;52.540;6.434;2022-07-29T15:33:11;25.40;46.30
16901;DHT22;8567;52.540;6.434;2022-07-29T15:35:37;25.50;46.50
16901;DHT22;8567;52.540;6.434;2022-07-29T15:38:05;25.50;46.20
16901;DHT22;8567;52.540;6.434;2022-07-29T15:40:32;25.50;46.80
16901;DHT22;8567;52.540;6.434;2022-07-29T15:42:59;25.50;46.50
16901;DHT22;8567;52.540;6.434;2022-07-29T15:45:35;25.50;46.20
16901;DHT22;8567;52.540;6.434;2022-07-29T15:48:04;25.50;46.20
16901;DHT22;8567;52.540;6.434;2022-07-29T15:50:33;25.60;46.20
16901;DHT22;8567;52.540;6.434;2022-07-29T15:53:00;25.60;46.10
16901;DHT22;8567;52.540;6.434;2022-07-29T15:55:28;25.60;46.70
16901;DHT22;8567;52.540;6.434;2022-07-29T15:57:55;25.60;46.50
16901;DHT22;8567;52.540;6.434;2022-07-29T16:00:22;25.60;46.30
16901;DHT22;8567;52.540;6.434;2022-07-29T16:02:49;25.60;46.60
16901;DHT22;8567;52.540;6.434;2022-07-29T16:05:16;25.50;46.40
16901;DHT22;8567;52.540;6.434;2022-07-29T16:07:43;25.60;46.30